Terminal Aerodrome Forecast
Issued by NWS

Home | Current Version | Previous Version | Text Only | Print | Product List | Glossary On
Versions: 1 2 3 4 5 6 7 8 9 10 11 12 13 14 15
000
FTAK31 PAJN 170738 AAA
TAFAPG
TAF AMD
PAPG 170738Z 1708/1806 18006KT P6SM SCT025 OVC040
      TEMPO 1708/1712 4SM -SHRA SCT003 BKN025 OVC040
     FM171300 VRB02KT 2SM RA BR OVC004
     FM171900 14005KT 5SM -SHRA BR SCT006 OVC015
     FM180000 15005KT 3SM -RA BR BKN015 OVC020
      AMD LTD TO CLD VIS AND WIND 1706/1715=

USA.gov is the U.S. government's official web portal to all federal, state and local government web resources and services.